createdAt,value
2017-10-02T00:00:02.084Z,12.9
2017-10-02T00:05:01.532Z,12.9
2017-10-02T00:10:01.914Z,12.9
2017-10-02T00:15:01.750Z,13
2017-10-02T00:20:01.788Z,13
2017-10-02T00:25:01.525Z,13
2017-10-02T00:30:01.512Z,13
2017-10-02T00:35:02.471Z,13
2017-10-02T00:40:01.431Z,13
2017-10-02T00:45:01.848Z,13
2017-10-02T00:50:01.597Z,13
2017-10-02T00:55:02.093Z,13
2017-10-02T01:00:01.801Z,13
2017-10-02T01:05:01.716Z,13
2017-10-02T01:10:01.546Z,13
2017-10-02T01:15:02.052Z,13
2017-10-02T01:20:01.693Z,13
2017-10-02T01:25:01.192Z,13
2017-10-02T01:30:02.358Z,13
2017-10-02T01:35:01.602Z,13.1
2017-10-02T01:40:01.743Z,13.1
2017-10-02T01:45:01.502Z,13.1
2017-10-02T01:50:01.687Z,13.1
2017-10-02T01:55:01.347Z,13.2
2017-10-02T02:00:01.488Z,13.2
2017-10-02T02:05:01.796Z,13.2
2017-10-02T02:10:01.718Z,13.2
2017-10-02T02:15:01.391Z,13.2
2017-10-02T02:20:01.589Z,13.2
2017-10-02T02:25:01.204Z,13.2
2017-10-02T02:30:02.218Z,13.3
2017-10-02T02:35:01.936Z,13.2
2017-10-02T02:40:02.089Z,13.2
2017-10-02T02:45:01.264Z,13.2
2017-10-02T02:50:02.150Z,13.2
2017-10-02T02:55:01.551Z,13.3
2017-10-02T03:00:02.066Z,13.2
2017-10-02T03:05:01.977Z,13.3
2017-10-02T03:10:02.131Z,13.3
2017-10-02T03:15:01.326Z,13.3
2017-10-02T03:20:02.227Z,13.3
2017-10-02T03:25:01.613Z,13.3
2017-10-02T03:30:01.843Z,13.3
2017-10-02T03:35:01.352Z,13.4
2017-10-02T03:40:02.005Z,13.4
2017-10-02T03:45:01.705Z,13.4
2017-10-02T03:50:01.708Z,13.4
2017-10-02T03:55:02.245Z,13.4
2017-10-02T04:00:01.357Z,13.4
2017-10-02T04:05:01.372Z,13.4
2017-10-02T04:10:01.580Z,13.4
2017-10-02T04:15:02.243Z,13.4
2017-10-02T04:20:01.896Z,13.4
2017-10-02T04:25:01.649Z,13.4
2017-10-02T04:30:01.223Z,13.4
2017-10-02T04:35:02.732Z,13.4
2017-10-02T04:40:01.330Z,13.4
2017-10-02T04:45:01.810Z,13.4
2017-10-02T04:50:02.402Z,13.4
2017-10-02T04:55:01.307Z,13.4
2017-10-02T05:00:01.477Z,13.4
2017-10-02T05:05:02.579Z,13.2
2017-10-02T05:10:01.247Z,13.2
2017-10-02T05:15:01.699Z,13
2017-10-02T05:20:01.749Z,12.9
2017-10-02T05:25:02.064Z,12.9
2017-10-02T05:30:02.163Z,12.8
2017-10-02T05:35:01.727Z,12.8
2017-10-02T05:40:02.231Z,12.8
2017-10-02T05:45:01.793Z,12.5
2017-10-02T05:50:01.897Z,12.5
2017-10-02T05:55:01.888Z,12.4
2017-10-02T06:00:02.200Z,12.4
2017-10-02T06:05:01.202Z,12.3
2017-10-02T06:10:02.133Z,12.3
2017-10-02T06:15:01.272Z,12.3
2017-10-02T06:20:02.194Z,12.2
2017-10-02T06:25:01.585Z,12.2
2017-10-02T06:30:01.733Z,12.2
2017-10-02T06:35:01.471Z,12.2
2017-10-02T06:40:01.968Z,12.2
2017-10-02T06:45:01.193Z,12.2
2017-10-02T06:50:01.269Z,12.2
2017-10-02T06:55:02.214Z,12.2
2017-10-02T07:00:01.257Z,12.2
2017-10-02T07:05:02.051Z,12.2
2017-10-02T07:10:01.331Z,12.2
2017-10-02T07:15:01.475Z,12.3
2017-10-02T07:20:01.384Z,12.3
2017-10-02T07:25:02.135Z,12.3
2017-10-02T07:30:01.394Z,12.3
2017-10-02T07:35:02.546Z,12.4
2017-10-02T07:40:01.286Z,12.4
2017-10-02T07:45:01.814Z,12.4
2017-10-02T07:50:01.828Z,12.4
2017-10-02T07:55:02.496Z,12.5
2017-10-02T08:00:01.628Z,12.5
2017-10-02T08:05:01.490Z,12.5
2017-10-02T08:10:01.409Z,12.5
2017-10-02T08:15:01.650Z,12.6
2017-10-02T08:20:01.362Z,12.6
2017-10-02T08:25:01.780Z,12.6
2017-10-02T08:30:02.474Z,12.8
2017-10-02T08:35:01.468Z,12.8
2017-10-02T08:40:01.330Z,12.7
2017-10-02T08:45:02.480Z,12.7
2017-10-02T08:50:01.461Z,12.7
2017-10-02T08:55:01.316Z,12.8
2017-10-02T09:00:01.571Z,12.8
2017-10-02T09:05:01.782Z,12.8
2017-10-02T09:10:01.823Z,13
2017-10-02T09:15:01.228Z,13.1
2017-10-02T09:20:02.328Z,13.1
2017-10-02T09:25:01.484Z,13.1
2017-10-02T09:30:01.931Z,13.2
2017-10-02T09:35:01.786Z,13.2
2017-10-02T09:40:02.031Z,13.2
2017-10-02T09:45:01.209Z,13.4
2017-10-02T09:50:01.370Z,13.4
2017-10-02T09:55:02.284Z,13.4
2017-10-02T10:00:01.544Z,13.5
2017-10-02T10:05:01.281Z,13.5
2017-10-02T10:10:01.573Z,13.7
2017-10-02T10:15:01.547Z,13.7
2017-10-02T10:20:01.340Z,13.8
2017-10-02T10:25:01.959Z,13.8
2017-10-02T10:30:01.731Z,13.8
2017-10-02T10:35:01.940Z,13.8
2017-10-02T10:40:01.928Z,14
2017-10-02T10:45:02.378Z,14.1
2017-10-02T10:50:01.320Z,14.1
2017-10-02T10:55:01.542Z,14.1
2017-10-02T11:00:02.003Z,14.1
2017-10-02T11:05:01.903Z,14.3
2017-10-02T11:10:01.745Z,14.3
2017-10-02T11:15:01.977Z,14.4
2017-10-02T11:20:02.230Z,14.4
2017-10-02T11:25:01.871Z,14.4
2017-10-02T11:30:01.306Z,14.8
2017-10-02T11:35:01.705Z,15
2017-10-02T11:40:02.143Z,15
2017-10-02T11:45:01.277Z,15
2017-10-02T11:50:01.439Z,15
2017-10-02T11:55:01.760Z,15
2017-10-02T12:00:02.445Z,15
2017-10-02T12:05:01.930Z,15
2017-10-02T12:10:01.924Z,15
2017-10-02T12:15:01.763Z,15
2017-10-02T12:20:01.625Z,15
2017-10-02T12:25:01.326Z,15
2017-10-02T12:30:01.796Z,15
2017-10-02T12:35:02.407Z,15
2017-10-02T12:40:01.245Z,15
2017-10-02T12:45:01.669Z,15.4
2017-10-02T12:50:01.625Z,15.4
2017-10-02T12:55:02.002Z,15.4
2017-10-02T13:00:01.804Z,15.6
2017-10-02T13:05:01.803Z,15.6
2017-10-02T13:10:02.085Z,15.8
2017-10-02T13:15:01.570Z,15.8
2017-10-02T13:20:01.801Z,15.8
2017-10-02T13:25:01.542Z,15.9
2017-10-02T13:30:02.642Z,15.9
2017-10-02T13:35:01.371Z,15.9
2017-10-02T13:40:01.613Z,16
2017-10-02T13:45:02.056Z,16
2017-10-02T13:50:03.346Z,16.1
2017-10-02T13:55:01.495Z,16.2
2017-10-02T14:00:01.408Z,16.2
2017-10-02T14:05:01.814Z,16.1
2017-10-02T14:10:02.136Z,16.2
2017-10-02T14:15:01.702Z,16.1
2017-10-02T14:20:01.400Z,16.1
2017-10-02T14:25:01.405Z,16.2
2017-10-02T14:30:01.713Z,16.2
2017-10-02T14:35:01.355Z,16.2
2017-10-02T14:40:02.049Z,16.2
2017-10-02T14:45:01.966Z,16.2
2017-10-02T14:50:01.880Z,16.2
2017-10-02T14:55:01.188Z,16.2
2017-10-02T15:00:01.825Z,16.2
2017-10-02T15:05:01.363Z,16.2
2017-10-02T15:10:01.282Z,16.2
2017-10-02T15:15:02.181Z,16.2
2017-10-02T15:20:01.795Z,16.2
2017-10-02T15:25:01.637Z,16.2
2017-10-02T15:30:01.827Z,16.2
2017-10-02T15:35:02.298Z,16.2
2017-10-02T15:40:01.351Z,16.2
2017-10-02T15:45:01.893Z,16
2017-10-02T15:50:01.857Z,16
2017-10-02T15:55:01.764Z,16
2017-10-02T16:00:01.784Z,16
2017-10-02T16:05:02.011Z,16
2017-10-02T16:10:01.534Z,15.9
2017-10-02T16:15:01.240Z,15.9
2017-10-02T16:20:01.969Z,15.9
2017-10-02T16:25:02.049Z,15.9
2017-10-02T16:30:02.159Z,15
2017-10-02T16:35:01.809Z,15
2017-10-02T16:40:02.082Z,15
2017-10-02T16:45:01.691Z,15
2017-10-02T16:50:01.763Z,15
2017-10-02T16:55:01.907Z,15
2017-10-02T17:00:01.834Z,15
2017-10-02T17:05:02.135Z,15
2017-10-02T17:10:01.687Z,15
2017-10-02T17:15:02.447Z,15
2017-10-02T17:20:02.455Z,15
2017-10-02T17:25:01.739Z,15
2017-10-02T17:30:01.500Z,15
2017-10-02T17:35:02.309Z,15
2017-10-02T17:40:01.523Z,15
2017-10-02T17:45:01.581Z,15
2017-10-02T17:50:02.071Z,15
2017-10-02T17:55:02.651Z,15
2017-10-02T18:00:01.341Z,15
2017-10-02T18:05:01.974Z,15
2017-10-02T18:10:02.012Z,15
2017-10-02T18:15:02.593Z,15
2017-10-02T18:20:01.822Z,15
2017-10-02T18:25:01.748Z,15
2017-10-02T18:30:01.535Z,15
2017-10-02T18:35:02.039Z,15
2017-10-02T18:40:02.307Z,15
2017-10-02T18:45:02.151Z,15
2017-10-02T18:50:01.843Z,15
2017-10-02T18:55:02.420Z,15
2017-10-02T19:00:01.651Z,14.9
2017-10-02T19:05:01.733Z,15
2017-10-02T19:10:01.558Z,15
2017-10-02T19:15:01.615Z,15
2017-10-02T19:20:01.934Z,15
2017-10-02T19:25:01.334Z,15
2017-10-02T19:30:01.810Z,15
2017-10-02T19:35:02.198Z,14.8
2017-10-02T19:40:01.975Z,14.7
2017-10-02T19:45:02.049Z,14.7
2017-10-02T19:50:02.172Z,14.6
2017-10-02T19:55:01.154Z,14.5
2017-10-02T20:00:01.941Z,14.5
2017-10-02T20:05:01.615Z,14.5
2017-10-02T20:10:02.264Z,14.5
2017-10-02T20:15:03.353Z,14.4
2017-10-02T20:20:02.019Z,14.4
2017-10-02T20:25:01.501Z,14.3
2017-10-02T20:30:01.718Z,14.3
2017-10-02T20:35:02.455Z,14.3
2017-10-02T20:40:02.114Z,14.2
2017-10-02T20:45:01.858Z,14.2
2017-10-02T20:50:01.948Z,14.2
2017-10-02T20:55:02.305Z,14.2
2017-10-02T21:00:01.486Z,14.2
2017-10-02T21:05:01.810Z,14.1
2017-10-02T21:10:01.687Z,14.1
2017-10-02T21:15:02.371Z,14
2017-10-02T21:20:01.533Z,14
2017-10-02T21:25:01.701Z,13.9
2017-10-02T21:30:01.969Z,13.9
2017-10-02T21:35:02.085Z,13.9
2017-10-02T21:40:01.591Z,13.9
2017-10-02T21:45:01.762Z,14
2017-10-02T21:50:01.603Z,13.9
2017-10-02T21:55:02.527Z,13.9
2017-10-02T22:00:01.584Z,13.8
2017-10-02T22:05:01.464Z,13.8
2017-10-02T22:10:01.860Z,13.8
2017-10-02T22:15:02.149Z,13.8
2017-10-02T22:20:01.214Z,13.7
2017-10-02T22:25:01.394Z,13.7
2017-10-02T22:30:01.209Z,13.7
2017-10-02T22:35:01.812Z,13.7
2017-10-02T22:40:01.528Z,13.6
2017-10-02T22:45:01.583Z,13.6
2017-10-02T22:50:01.707Z,13.7
2017-10-02T22:55:01.273Z,13.6
2017-10-02T23:00:02.108Z,13.7
2017-10-02T23:05:02.020Z,13.7
2017-10-02T23:10:02.166Z,13.7
2017-10-02T23:15:01.732Z,13.8
2017-10-02T23:20:01.555Z,13.7
2017-10-02T23:25:02.316Z,13.7
2017-10-02T23:30:01.998Z,13.7
2017-10-02T23:35:01.512Z,13.7
2017-10-02T23:40:01.523Z,13.7
2017-10-02T23:45:02.281Z,13.7
2017-10-02T23:50:01.937Z,13.7
2017-10-02T23:55:01.714Z,13.7
